Time;durP1;ratioP1;P1;durP2;ratioP2;P2;SDS_P1;SDS_P2;PMS_P1;PMS_P2;Temp;Humidity;BMP_temperature;BMP_pressure;BME280_temperature;BME280_humidity;BME280_pressure;Samples;Min_cycle;Max_cycle;Signal;HPM_P1;HPM_P2
2023/05/25 00:02:17;;;;;;;6.35;5.32;;;;;;;16.56;54.71;99523.72;5149485;27;20092;-73
2023/05/25 00:04:47;;;;;;;7.82;6.03;;;;;;;16.54;54.85;99517.66;5148154;27;20059;-73
2023/05/25 00:07:14;;;;;;;9.85;6.85;;;;;;;16.52;54.89;99529.44;5148803;27;20318;-73
2023/05/25 00:09:43;;;;;;;7.75;5.28;;;;;;;16.50;55.01;99523.34;5148223;27;20241;-72
2023/05/25 00:12:11;;;;;;;7.72;6.30;;;;;;;16.47;55.05;99523.59;5148698;27;20299;-73
2023/05/25 00:14:38;;;;;;;8.75;6.18;;;;;;;16.47;55.03;99524.44;5147865;27;20031;-73
2023/05/25 00:17:08;;;;;;;6.13;5.28;;;;;;;15.85;54.62;99435.66;5147774;27;20046;-73
2023/05/25 00:19:35;;;;;;;6.45;5.75;;;;;;;16.42;54.46;99521.28;5148627;27;20360;-73
2023/05/25 00:22:02;;;;;;;8.57;6.22;;;;;;;16.40;54.90;99528.56;5148558;27;20045;-73
2023/05/25 00:24:30;;;;;;;6.60;5.68;;;;;;;16.38;54.61;99535.00;5148429;27;20050;-73
2023/05/25 00:26:56;;;;;;;9.93;5.97;;;;;;;16.34;54.56;99531.69;5148687;27;20101;-73
2023/05/25 00:29:25;;;;;;;7.90;5.30;;;;;;;16.32;54.55;99533.63;5147596;27;20203;-73
2023/05/25 00:31:51;;;;;;;6.57;5.68;;;;;;;16.27;54.45;99525.97;5148880;27;20057;-73
2023/05/25 00:34:18;;;;;;;10.20;6.07;;;;;;;16.26;54.63;99526.94;5148828;27;20035;-73
2023/05/25 00:36:47;;;;;;;7.70;5.97;;;;;;;16.25;54.70;99527.91;5148343;27;20039;-73
2023/05/25 00:39:14;;;;;;;9.57;5.78;;;;;;;16.21;54.61;99528.25;5148418;27;20043;-73
2023/05/25 00:41:43;;;;;;;9.20;5.70;;;;;;;16.19;54.41;99531.03;5148386;27;20051;-73
2023/05/25 00:44:10;;;;;;;9.35;5.22;;;;;;;16.04;54.58;99516.16;5148569;27;20045;-73
2023/05/25 00:46:39;;;;;;;8.85;6.53;;;;;;;15.93;54.63;99500.06;5148263;27;20051;-74
2023/05/25 00:49:06;;;;;;;8.73;5.80;;;;;;;16.13;54.84;99538.66;5147948;27;20039;-73
2023/05/25 00:51:35;;;;;;;8.18;5.00;;;;;;;16.11;54.62;99533.44;5147104;27;20031;-73
2023/05/25 00:54:02;;;;;;;7.93;5.78;;;;;;;16.09;54.42;99540.72;5148474;27;20191;-73
2023/05/25 00:56:32;;;;;;;6.40;5.32;;;;;;;16.08;54.35;99535.50;5147012;27;20043;-73
2023/05/25 00:59:04;;;;;;;6.97;6.00;;;;;;;15.68;54.37;99495.69;5146953;27;20043;-73
2023/05/25 01:01:38;;;;;;;8.98;6.38;;;;;;;15.98;54.61;99530.84;5147775;27;20053;-73
2023/05/25 01:04:08;;;;;;;6.43;4.63;;;;;;;15.96;54.88;99542.59;5147675;27;20114;-73
2023/05/25 01:06:39;;;;;;;5.90;5.30;;;;;;;15.69;54.94;99503.59;5147683;27;20306;-73
2023/05/25 01:09:11;;;;;;;6.22;5.03;;;;;;;15.92;54.62;99539.31;5147871;27;20298;-73
2023/05/25 01:11:42;;;;;;;8.45;5.65;;;;;;;15.45;54.57;99465.31;5147549;27;20047;-73
2023/05/25 01:14:09;;;;;;;6.55;5.78;;;;;;;15.42;54.70;99470.88;5146661;27;20037;-73
2023/05/25 01:16:37;;;;;;;7.60;5.13;;;;;;;15.08;54.64;99403.91;5147757;27;20187;-73
2023/05/25 01:19:04;;;;;;;6.43;5.15;;;;;;;15.88;54.45;99548.50;5147976;27;20291;-73
2023/05/25 01:21:40;;;;;;;9.13;5.65;;;;;;;15.88;55.04;99547.66;5147417;27;20106;-72
2023/05/25 01:24:21;;;;;;;9.77;6.10;;;;;;;15.65;54.72;99518.16;5147558;27;20206;-73
2023/05/25 01:26:55;;;;;;;7.28;5.55;;;;;;;15.84;54.94;99538.16;5147848;27;20074;-73
2023/05/25 01:29:24;;;;;;;6.15;5.00;;;;;;;15.59;54.65;99507.88;5146440;27;20035;-73
2023/05/25 01:31:53;;;;;;;6.00;4.90;;;;;;;14.92;54.45;99391.78;5146317;27;20039;-73
2023/05/25 01:34:21;;;;;;;9.13;6.03;;;;;;;15.60;54.53;99503.38;5147442;27;20190;-73
2023/05/25 01:36:50;;;;;;;9.10;5.65;;;;;;;15.66;54.86;99513.66;5146270;27;20039;-72
2023/05/25 01:39:17;;;;;;;9.52;5.43;;;;;;;15.79;54.95;99530.50;5147628;27;20036;-72
2023/05/25 01:41:44;;;;;;;7.03;5.65;;;;;;;15.82;54.88;99548.13;5146895;27;20054;-72
2023/05/25 01:44:11;;;;;;;6.35;4.68;;;;;;;15.66;54.54;99517.19;5146066;27;20046;-71
2023/05/25 01:46:40;;;;;;;7.22;5.65;;;;;;;15.28;54.46;99471.03;5146849;27;20253;-72
2023/05/25 01:49:16;;;;;;;9.90;5.35;;;;;;;15.12;55.25;99438.38;5147223;27;20092;-72
2023/05/25 01:51:55;;;;;;;5.85;5.10;;;;;;;15.71;54.92;99541.75;5146336;27;20080;-72
2023/05/25 01:54:28;;;;;;;9.60;5.90;;;;;;;15.69;55.14;99550.84;5147392;27;20092;-72
2023/05/25 01:57:00;;;;;;;9.48;5.95;;;;;;;15.43;55.40;99501.09;5146833;27;20062;-72
2023/05/25 01:59:29;;;;;;;6.97;5.00;;;;;;;15.65;55.01;99539.53;5147404;27;20058;-72
2023/05/25 02:01:58;;;;;;;8.23;5.05;;;;;;;15.07;54.86;99444.06;5147218;27;20031;-72
2023/05/25 02:04:26;;;;;;;6.93;5.10;;;;;;;15.61;55.08;99538.00;5147204;27;20035;-72
2023/05/25 02:06:54;;;;;;;10.45;5.80;;;;;;;15.58;55.46;99538.22;5146680;27;20053;-72
2023/05/25 02:09:21;;;;;;;9.48;5.40;;;;;;;15.54;55.01;99539.41;5145987;28;20045;-72
2023/05/25 02:11:49;;;;;;;7.50;5.55;;;;;;;15.52;55.39;99538.69;5147243;27;20102;-72
2023/05/25 02:14:16;;;;;;;5.90;5.30;;;;;;;15.51;55.41;99539.63;5146857;28;20039;-73
2023/05/25 02:16:44;;;;;;;5.70;4.85;;;;;;;15.46;55.38;99539.13;5145735;28;20084;-72
2023/05/25 02:19:13;;;;;;;9.73;6.10;;;;;;;15.49;55.54;99548.72;5147135;28;20035;-72
2023/05/25 02:21:41;;;;;;;8.60;5.32;;;;;;;15.49;55.41;99554.06;5146811;28;20043;-71
2023/05/25 02:24:09;;;;;;;9.60;6.80;;;;;;;15.46;55.52;99554.28;5145624;28;20046;-72
2023/05/25 02:26:37;;;;;;;9.10;6.03;;;;;;;15.44;55.24;99556.22;5146706;27;20046;-72
2023/05/25 02:29:04;;;;;;;8.82;5.80;;;;;;;15.28;55.38;99535.94;5148638;27;20046;-72
2023/05/25 02:31:31;;;;;;;11.02;5.90;;;;;;;15.39;55.67;99565.41;5149817;27;20221;-72
2023/05/25 02:33:58;;;;;;;7.35;5.15;;;;;;;15.36;55.53;99560.28;5149804;27;20041;-71
2023/05/25 02:36:26;;;;;;;6.43;5.35;;;;;;;15.32;55.70;99568.63;5150893;27;20104;-72
2023/05/25 02:38:52;;;;;;;9.80;6.05;;;;;;;15.05;55.79;99524.25;5149743;27;20039;-72
2023/05/25 02:41:20;;;;;;;7.97;6.00;;;;;;;15.29;55.83;99563.50;5150781;27;20035;-72
2023/05/25 02:43:47;;;;;;;8.45;6.07;;;;;;;15.10;55.74;99536.41;5150408;27;20047;-72
2023/05/25 02:46:14;;;;;;;8.15;6.05;;;;;;;15.24;56.19;99571.84;5150975;27;20043;-72
2023/05/25 02:48:41;;;;;;;8.40;5.78;;;;;;;15.23;56.36;99569.28;5150579;27;20043;-72
2023/05/25 02:51:08;;;;;;;10.60;6.30;;;;;;;15.20;55.92;99574.84;5150605;27;20051;-71
2023/05/25 02:53:35;;;;;;;9.63;6.50;;;;;;;15.19;56.09;99578.47;5150537;27;20302;-72
2023/05/25 02:56:02;;;;;;;7.60;6.10;;;;;;;14.47;56.37;99458.06;5150396;27;20061;-71
2023/05/25 02:58:30;;;;;;;10.60;6.68;;;;;;;15.17;56.60;99586.59;5150147;27;20043;-72
2023/05/25 03:00:58;;;;;;;8.98;6.05;;;;;;;15.17;56.55;99591.94;5150662;27;20050;-72
2023/05/25 03:03:25;;;;;;;7.38;6.13;;;;;;;15.14;56.46;99594.81;5149649;27;20062;-71
2023/05/25 03:05:52;;;;;;;9.77;6.50;;;;;;;14.99;56.29;99575.38;5149944;27;20047;-71
2023/05/25 03:08:19;;;;;;;8.88;6.78;;;;;;;15.11;56.26;99600.38;5150288;27;20047;-71
2023/05/25 03:10:45;;;;;;;6.97;6.25;;;;;;;15.09;56.35;99596.94;5150504;27;20084;-71
2023/05/25 03:13:12;;;;;;;10.38;6.25;;;;;;;15.07;56.74;99594.38;5149877;27;20043;-71
2023/05/25 03:15:40;;;;;;;7.75;6.68;;;;;;;15.05;56.71;99596.31;5150039;27;20035;-71
2023/05/25 03:18:07;;;;;;;9.98;6.18;;;;;;;15.06;56.77;99595.34;5149828;27;20039;-71
2023/05/25 03:20:34;;;;;;;9.65;6.30;;;;;;;15.06;56.39;99591.81;5149649;27;20047;-72
2023/05/25 03:23:01;;;;;;;8.18;6.32;;;;;;;15.03;56.92;99590.22;5149666;27;20042;-71
2023/05/25 03:25:28;;;;;;;10.43;6.95;;;;;;;15.00;57.08;99586.91;5148734;27;20352;-70
2023/05/25 03:27:54;;;;;;;11.27;6.45;;;;;;;14.99;57.04;99587.88;5149960;27;20102;-70
2023/05/25 03:30:22;;;;;;;7.70;6.82;;;;;;;14.97;56.61;99585.31;5148686;27;20072;-71
2023/05/25 03:32:51;;;;;;;8.07;6.72;;;;;;;14.97;56.76;99589.81;5149357;27;20030;-72
2023/05/25 03:35:17;;;;;;;10.48;6.68;;;;;;;14.81;57.16;99555.31;5149597;27;20047;-72
2023/05/25 03:37:44;;;;;;;12.23;7.03;;;;;;;14.97;57.04;99593.31;5149680;27;20039;-73
2023/05/25 03:40:11;;;;;;;9.18;6.72;;;;;;;14.96;57.09;99596.94;5147212;27;20080;-73
2023/05/25 03:42:38;;;;;;;10.48;7.82;;;;;;;14.83;57.15;99571.22;5149380;27;20055;-73
2023/05/25 03:45:07;;;;;;;10.35;7.68;;;;;;;14.95;57.23;99599.72;5149202;27;20035;-72
2023/05/25 03:47:34;;;;;;;10.75;8.10;;;;;;;14.92;57.46;99610.63;5149502;27;20245;-72
2023/05/25 03:50:03;;;;;;;13.93;7.40;;;;;;;14.90;57.22;99613.38;5149469;27;20088;-73
2023/05/25 03:52:30;;;;;;;9.45;7.22;;;;;;;14.87;57.30;99608.25;5149164;27;20070;-72
2023/05/25 03:54:56;;;;;;;10.15;6.72;;;;;;;14.88;57.36;99607.31;5148231;27;20031;-72
2023/05/25 03:57:23;;;;;;;10.85;6.75;;;;;;;14.87;57.39;99613.59;5149468;27;20039;-72
2023/05/25 03:59:50;;;;;;;10.18;6.72;;;;;;;14.87;57.33;99608.25;5148906;27;20052;-72
2023/05/25 04:02:16;;;;;;;10.93;7.05;;;;;;;14.89;57.18;99609.00;5148923;27;20043;-72
2023/05/25 04:04:44;;;;;;;9.45;6.45;;;;;;;14.91;57.15;99612.44;5147958;27;20070;-72
2023/05/25 04:07:12;;;;;;;10.63;6.97;;;;;;;14.90;57.15;99608.06;5149131;27;20046;-73
2023/05/25 04:09:38;;;;;;;12.00;6.80;;;;;;;14.92;57.25;99606.13;5148765;27;20043;-72
2023/05/25 04:12:05;;;;;;;10.80;7.63;;;;;;;14.93;57.53;99604.31;5149007;27;20314;-72
2023/05/25 04:14:32;;;;;;;10.27;7.03;;;;;;;14.94;57.11;99596.22;5148916;27;20038;-73
2023/05/25 04:16:59;;;;;;;11.27;6.97;;;;;;;14.72;57.27;99563.97;5148916;27;20295;-72
2023/05/25 04:19:25;;;;;;;10.20;6.40;;;;;;;14.97;57.42;99613.81;5148586;27;20295;-72
2023/05/25 04:21:52;;;;;;;17.88;7.25;;;;;;;14.96;57.52;99609.44;5149048;27;20057;-73
2023/05/25 04:24:21;;;;;;;10.55;7.03;;;;;;;14.96;57.66;99602.28;5148721;27;20333;-73
2023/05/25 04:26:49;;;;;;;8.15;7.15;;;;;;;14.85;57.44;99580.84;5148440;27;20303;-73
2023/05/25 04:29:16;;;;;;;10.60;7.38;;;;;;;15.03;57.12;99608.91;5148571;27;20095;-73
2023/05/25 04:31:44;;;;;;;12.02;7.65;;;;;;;14.64;57.03;99544.97;5148206;27;20102;-73
2023/05/25 04:34:13;;;;;;;13.48;7.50;;;;;;;15.04;57.26;99607.09;5147520;27;20114;-73
2023/05/25 04:36:41;;;;;;;10.57;6.90;;;;;;;15.06;57.32;99606.03;5148291;27;20035;-72
2023/05/25 04:39:08;;;;;;;9.50;6.63;;;;;;;15.07;57.06;99612.22;5148142;27;20099;-73
2023/05/25 04:41:38;;;;;;;10.02;7.35;;;;;;;14.94;57.36;99584.69;5147118;27;20261;-73
2023/05/25 04:44:05;;;;;;;11.93;7.32;;;;;;;14.70;56.67;99558.72;5148030;27;20325;-72
2023/05/25 04:46:35;;;;;;;10.63;6.90;;;;;;;15.08;56.74;99609.44;5148358;27;20092;-72
2023/05/25 04:49:03;;;;;;;8.68;7.05;;;;;;;15.11;56.84;99616.38;5147962;27;20084;-73
2023/05/25 04:51:31;;;;;;;14.05;7.10;;;;;;;14.50;56.95;99523.66;5148124;27;20191;-72
2023/05/25 04:53:58;;;;;;;14.02;7.00;;;;;;;15.14;56.76;99620.66;5148198;27;20358;-72
2023/05/25 04:56:25;;;;;;;10.95;7.03;;;;;;;14.94;56.74;99576.66;5148073;27;20279;-73
2023/05/25 04:58:53;;;;;;;15.43;7.95;;;;;;;14.95;56.79;99584.56;5146574;27;20045;-72
2023/05/25 05:01:20;;;;;;;9.68;6.82;;;;;;;14.34;56.21;99474.03;5148280;27;20039;-73
2023/05/25 05:03:47;;;;;;;10.02;7.13;;;;;;;15.23;56.40;99628.88;5146763;27;20039;-73
2023/05/25 05:06:14;;;;;;;13.05;7.60;;;;;;;15.24;56.12;99624.41;5148099;27;20321;-72
2023/05/25 05:08:41;;;;;;;8.88;6.57;;;;;;;14.96;56.27;99580.94;5146756;27;20084;-72
2023/05/25 05:11:08;;;;;;;8.75;6.45;;;;;;;15.25;56.27;99629.63;5147249;27;20035;-73
2023/05/25 05:13:35;;;;;;;12.27;7.97;;;;;;;15.27;55.97;99640.19;5147325;27;20100;-73
2023/05/25 05:16:03;;;;;;;8.93;6.88;;;;;;;15.28;56.17;99633.91;5147146;27;20035;-73
2023/05/25 05:18:31;;;;;;;9.50;6.93;;;;;;;15.29;56.04;99628.44;5147877;27;20043;-72
2023/05/25 05:20:57;;;;;;;12.68;8.48;;;;;;;15.29;56.22;99632.94;5147863;27;20118;-72
2023/05/25 05:23:24;;;;;;;9.80;7.15;;;;;;;15.29;56.15;99638.28;5146405;27;20035;-73
2023/05/25 05:25:51;;;;;;;13.40;8.27;;;;;;;15.06;56.02;99595.34;5147590;27;20035;-73
2023/05/25 05:28:17;;;;;;;23.30;8.00;;;;;;;14.29;56.17;99454.84;5147638;27;20126;-72
2023/05/25 05:30:46;;;;;;;35.03;9.98;;;;;;;15.37;55.95;99627.91;5146227;27;20039;-73
2023/05/25 05:33:14;;;;;;;26.75;8.65;;;;;;;15.38;56.00;99638.47;5146928;27;20043;-72
2023/05/25 05:35:41;;;;;;;25.25;8.50;;;;;;;15.40;55.59;99638.38;5146200;27;20043;-72
2023/05/25 05:38:08;;;;;;;16.95;6.75;;;;;;;15.42;55.96;99633.78;5147113;27;20043;-73
2023/05/25 05:40:35;;;;;;;12.05;6.95;;;;;;;15.45;55.72;99635.38;5146037;27;20266;-72
2023/05/25 05:43:01;;;;;;;8.35;6.68;;;;;;;15.30;55.37;99610.63;5146819;27;20058;-72
2023/05/25 05:45:28;;;;;;;11.15;7.38;;;;;;;15.48;55.21;99638.69;5146814;27;20054;-72
2023/05/25 05:47:55;;;;;;;10.23;5.75;;;;;;;15.49;55.72;99634.19;5146832;27;20304;-72
2023/05/25 05:50:23;;;;;;;9.32;5.70;;;;;;;15.31;55.58;99604.31;5146956;27;20108;-72
2023/05/25 05:52:50;;;;;;;9.07;5.75;;;;;;;15.56;55.18;99641.66;5147115;27;20043;-73
2023/05/25 05:55:17;;;;;;;10.70;5.82;;;;;;;15.60;55.49;99636.97;5145845;27;20035;-71
2023/05/25 05:57:43;;;;;;;8.90;6.22;;;;;;;15.27;54.90;99589.47;5147019;27;20061;-71
2023/05/25 06:00:12;;;;;;;13.63;7.55;;;;;;;15.66;54.95;99642.75;5146669;27;20096;-71
2023/05/25 06:02:38;;;;;;;8.82;5.05;;;;;;;15.69;55.17;99652.38;5145305;27;20041;-72
2023/05/25 06:05:06;;;;;;;11.23;5.35;;;;;;;15.73;55.10;99655.69;5146587;27;20035;-71
2023/05/25 06:07:34;;;;;;;8.95;5.63;;;;;;;15.74;55.10;99654.72;5146629;27;20327;-72
2023/05/25 06:10:01;;;;;;;10.60;5.85;;;;;;;15.77;54.65;99652.66;5146972;28;20043;-72
2023/05/25 06:12:27;;;;;;;12.30;6.35;;;;;;;15.78;55.08;99661.53;5145761;28;20118;-71
2023/05/25 06:14:54;;;;;;;11.82;6.03;;;;;;;15.81;55.12;99659.50;5146567;28;20031;-71
2023/05/25 06:17:22;;;;;;;11.73;5.88;;;;;;;15.86;54.64;99659.16;5147014;28;20211;-73
2023/05/25 06:19:49;;;;;;;15.23;7.43;;;;;;;15.90;54.73;99666.00;5146941;28;20043;-73
2023/05/25 06:22:16;;;;;;;7.30;5.63;;;;;;;15.91;55.01;99662.38;5145612;28;20036;-72
2023/05/25 06:24:44;;;;;;;10.90;5.50;;;;;;;15.95;55.01;99663.84;5146660;28;20104;-73
2023/05/25 06:27:12;;;;;;;10.38;5.75;;;;;;;15.98;54.54;99660.97;5146274;28;20187;-73
2023/05/25 06:29:39;;;;;;;9.32;5.18;;;;;;;14.61;54.37;99433.16;5146706;28;20043;-73
2023/05/25 06:32:06;;;;;;;16.90;6.82;;;;;;;16.04;54.57;99663.19;5146374;28;20046;-72
2023/05/25 06:34:32;;;;;;;9.52;5.70;;;;;;;16.07;54.56;99654.94;5146291;28;20047;-73
2023/05/25 06:36:59;;;;;;;8.43;5.13;;;;;;;15.91;54.62;99628.47;5146302;28;20050;-73
2023/05/25 06:39:26;;;;;;;8.68;6.40;;;;;;;16.17;54.51;99658.66;5146851;28;20031;-73
2023/05/25 06:41:54;;;;;;;8.10;5.85;;;;;;;15.40;54.21;99515.53;5146317;28;20054;-73
2023/05/25 06:44:21;;;;;;;10.32;5.57;;;;;;;16.01;54.54;99616.16;5146705;27;20210;-72
2023/05/25 06:46:48;;;;;;;13.20;5.90;;;;;;;16.33;54.57;99655.69;5146532;28;20039;-72
2023/05/25 06:49:14;;;;;;;8.95;6.03;;;;;;;16.40;54.04;99653.41;5146133;28;20049;-73
2023/05/25 06:51:41;;;;;;;8.48;5.50;;;;;;;16.46;54.11;99656.50;5146048;28;20050;-73
2023/05/25 06:54:08;;;;;;;9.10;5.68;;;;;;;16.52;53.92;99661.38;5145235;28;20127;-73
2023/05/25 06:56:35;;;;;;;9.25;5.07;;;;;;;16.61;53.53;99662.53;5145342;28;20229;-73
2023/05/25 06:59:03;;;;;;;11.00;5.50;;;;;;;16.69;53.55;99652.13;5145242;28;20051;-73
2023/05/25 07:01:30;;;;;;;10.60;5.60;;;;;;;16.57;53.65;99615.56;5146465;28;20047;-72
2023/05/25 07:03:56;;;;;;;9.38;5.97;;;;;;;16.92;53.60;99656.56;5146490;28;20190;-73
2023/05/25 07:06:23;;;;;;;9.18;6.03;;;;;;;17.10;53.09;99653.44;5146220;28;20186;-74
2023/05/25 07:08:50;;;;;;;8.15;6.53;;;;;;;17.28;52.71;99647.56;5145881;27;20043;-74
2023/05/25 07:11:19;;;;;;;6.57;4.63;;;;;;;17.31;52.64;99612.50;5145873;28;20055;-73
2023/05/25 07:13:46;;;;;;;7.70;5.35;;;;;;;17.79;51.77;99655.16;5145942;27;20056;-73
2023/05/25 07:16:14;;;;;;;7.43;4.95;;;;;;;18.03;51.03;99641.59;5149561;27;20038;-73
2023/05/25 07:18:42;;;;;;;7.72;4.90;;;;;;;18.25;50.74;99652.25;5149758;27;20050;-73
2023/05/25 07:21:09;;;;;;;9.07;5.53;;;;;;;18.46;50.20;99641.59;5148608;27;20051;-73
2023/05/25 07:23:36;;;;;;;9.25;5.78;;;;;;;18.66;49.68;99648.00;5149656;27;20042;-73
2023/05/25 07:26:03;;;;;;;16.27;6.22;;;;;;;18.89;49.58;99633.50;5150011;27;20102;-73
2023/05/25 07:28:30;;;;;;;10.13;7.45;;;;;;;19.07;49.12;99644.50;5148593;27;20050;-73
2023/05/25 07:30:56;;;;;;;11.80;5.43;;;;;;;15.70;48.78;99160.66;5149791;27;20039;-73
2023/05/25 07:33:24;;;;;;;11.40;6.82;;;;;;;19.54;48.33;99634.19;5149616;27;20080;-73
2023/05/25 07:35:51;;;;;;;7.95;5.47;;;;;;;19.72;47.86;99635.25;5149401;27;20230;-73
2023/05/25 07:38:18;;;;;;;9.68;6.03;;;;;;;19.91;47.52;99641.69;5148541;27;20039;-74
2023/05/25 07:40:46;;;;;;;10.15;6.32;;;;;;;19.90;47.38;99607.72;5148151;27;20039;-73
2023/05/25 07:43:12;;;;;;;11.70;7.63;;;;;;;20.33;46.98;99640.56;5149363;27;20070;-74
2023/05/25 07:45:40;;;;;;;12.88;6.65;;;;;;;20.57;46.57;99636.59;5149395;27;20047;-74
2023/05/25 07:48:08;;;;;;;26.25;7.88;;;;;;;20.76;46.28;99640.16;5149099;27;20035;-74
2023/05/25 07:50:36;;;;;;;13.10;6.30;;;;;;;20.81;45.86;99604.69;5149705;27;20046;-74
2023/05/25 07:53:03;;;;;;;7.68;5.32;;;;;;;21.00;45.57;99639.69;5148139;27;20043;-73
2023/05/25 07:55:30;;;;;;;10.27;6.28;;;;;;;21.14;45.31;99639.28;5148890;27;20039;-74
2023/05/25 07:57:56;;;;;;;8.27;5.72;;;;;;;21.32;44.81;99635.84;5148966;27;20035;-74
2023/05/25 08:00:23;;;;;;;8.13;5.00;;;;;;;21.42;44.84;99633.97;5149337;27;20054;-74
2023/05/25 08:02:50;;;;;;;9.75;6.38;;;;;;;21.61;44.52;99641.13;5149247;27;20118;-73
2023/05/25 08:05:17;;;;;;;11.38;6.25;;;;;;;21.72;44.03;99614.81;5148488;27;20039;-73
2023/05/25 08:07:45;;;;;;;8.55;5.63;;;;;;;22.05;43.67;99639.53;5147853;27;20035;-73
2023/05/25 08:10:12;;;;;;;21.10;7.28;;;;;;;22.24;43.44;99642.09;5148428;27;20043;-73
2023/05/25 08:12:39;;;;;;;14.63;5.65;;;;;;;22.21;43.30;99606.47;5149153;27;20047;-73
2023/05/25 08:15:07;;;;;;;16.00;5.40;;;;;;;22.51;42.96;99646.63;5147563;27;20272;-73
2023/05/25 08:17:33;;;;;;;11.70;5.82;;;;;;;22.56;42.69;99647.06;5148798;27;20045;-74
2023/05/25 08:20:00;;;;;;;358.02;69.28;;;;;;;22.38;42.66;99602.94;5148786;27;20118;-72
2023/05/25 08:22:27;;;;;;;797.60;159.23;;;;;;;22.36;42.40;99586.03;5148678;27;20299;-73
2023/05/25 08:24:55;;;;;;;106.63;24.42;;;;;;;22.75;42.28;99634.41;5149002;27;20043;-72
2023/05/25 08:27:21;;;;;;;16.55;6.10;;;;;;;22.83;42.09;99639.88;5148020;27;20034;-73
2023/05/25 08:29:48;;;;;;;6.35;4.55;;;;;;;22.93;41.84;99635.22;5147487;27;20035;-73
2023/05/25 08:32:15;;;;;;;8.63;5.07;;;;;;;22.85;41.77;99608.13;5148547;27;20084;-73
2023/05/25 08:34:42;;;;;;;7.60;5.15;;;;;;;23.19;41.38;99638.81;5148438;27;20045;-73
2023/05/25 08:37:08;;;;;;;6.03;4.70;;;;;;;23.28;41.25;99628.91;5148357;27;20031;-73
2023/05/25 08:39:35;;;;;;;7.93;4.97;;;;;;;23.43;41.09;99631.88;5148447;27;20106;-73
2023/05/25 08:42:06;;;;;;;9.00;5.30;;;;;;;23.51;40.54;99627.38;5148232;27;20059;-73
2023/05/25 08:44:33;;;;;;;10.60;4.63;;;;;;;23.55;41.05;99625.19;5148181;27;20231;-73
2023/05/25 08:47:06;;;;;;;6.85;4.57;;;;;;;23.38;39.65;99586.38;5146995;27;20295;-73
2023/05/25 08:49:37;;;;;;;9.00;4.90;;;;;;;23.58;40.16;99630.28;5148445;27;20058;-73
2023/05/25 08:52:04;;;;;;;10.30;4.82;;;;;;;23.52;40.49;99630.91;5147709;27;20198;-73
2023/05/25 08:54:34;;;;;;;7.53;4.85;;;;;;;23.32;40.54;99633.84;5147846;27;20340;-72
2023/05/25 08:57:08;;;;;;;7.35;4.57;;;;;;;23.34;40.06;99639.94;5146816;27;20176;-73
2023/05/25 08:59:42;;;;;;;22.10;7.47;;;;;;;23.44;40.25;99633.59;5147087;27;20045;-73
2023/05/25 09:02:21;;;;;;;34.47;8.75;;;;;;;23.33;39.14;99600.38;5147623;27;20039;-73
2023/05/25 09:04:48;;;;;;;13.20;5.28;;;;;;;23.52;40.56;99639.03;5147605;27;20039;-73
2023/05/25 09:07:15;;;;;;;8.98;5.30;;;;;;;23.56;40.75;99637.72;5147204;27;20099;-73
2023/05/25 09:09:42;;;;;;;7.43;4.40;;;;;;;23.67;40.68;99632.03;5147948;27;20038;-73
2023/05/25 09:12:12;;;;;;;8.00;4.82;;;;;;;23.76;40.03;99635.59;5146562;27;20069;-73
2023/05/25 09:14:44;;;;;;;16.42;5.15;;;;;;;23.58;40.25;99597.81;5146899;27;20035;-73
2023/05/25 09:17:12;;;;;;;7.40;4.68;;;;;;;23.87;40.61;99641.59;5147579;27;20103;-73
2023/05/25 09:19:39;;;;;;;6.70;4.45;;;;;;;23.93;40.28;99635.53;5147750;27;20054;-73
2023/05/25 09:22:05;;;;;;;7.38;4.82;;;;;;;23.63;40.37;99607.16;5146193;27;20058;-73
2023/05/25 09:24:34;;;;;;;10.45;4.72;;;;;;;24.02;40.05;99643.69;5147201;27;20042;-73
2023/05/25 09:27:02;;;;;;;6.65;4.32;;;;;;;24.04;40.55;99636.25;5147172;27;20302;-73
2023/05/25 09:29:31;;;;;;;8.85;5.13;;;;;;;24.10;40.10;99638.31;5147122;27;20039;-73
2023/05/25 09:31:57;;;;;;;7.13;4.57;;;;;;;24.10;39.95;99643.72;5147659;27;20050;-73
2023/05/25 09:34:30;;;;;;;8.75;4.75;;;;;;;24.08;40.01;99634.91;5147297;27;20291;-73
2023/05/25 09:36:57;;;;;;;8.60;4.97;;;;;;;23.98;40.07;99644.03;5145929;27;20202;-73
2023/05/25 09:39:25;;;;;;;8.23;5.28;;;;;;;23.68;40.22;99595.84;5146310;27;20332;-73
2023/05/25 09:41:52;;;;;;;16.23;6.55;;;;;;;23.51;40.33;99567.00;5146508;27;20207;-73
2023/05/25 09:44:19;;;;;;;12.40;5.38;;;;;;;23.93;39.96;99637.38;5147434;27;20031;-73
2023/05/25 09:46:47;;;;;;;12.48;5.63;;;;;;;23.74;39.94;99616.84;5146490;27;20039;-73
2023/05/25 09:49:14;;;;;;;11.00;5.32;;;;;;;23.59;40.28;99594.09;5145739;27;20043;-73
2023/05/25 09:51:41;;;;;;;7.13;4.22;;;;;;;23.87;40.23;99640.72;5146634;27;20054;-73
2023/05/25 09:54:10;;;;;;;7.53;4.32;;;;;;;23.97;39.98;99655.88;5146196;27;20284;-73
2023/05/25 09:56:37;;;;;;;6.75;4.20;;;;;;;23.96;39.64;99632.47;5145841;27;20049;-73
2023/05/25 09:59:04;;;;;;;10.68;5.55;;;;;;;23.97;39.56;99647.75;5145772;27;20206;-73
2023/05/25 10:01:32;;;;;;;8.57;4.53;;;;;;;23.81;39.64;99609.75;5146825;27;20119;-73
2023/05/25 10:04:01;;;;;;;7.90;4.00;;;;;;;23.96;39.64;99634.34;5145568;27;20046;-73
2023/05/25 10:06:27;;;;;;;7.47;3.80;;;;;;;23.77;39.88;99602.13;5146509;27;20103;-73
2023/05/25 10:08:57;;;;;;;8.35;5.65;;;;;;;23.73;39.99;99607.00;5147088;27;20064;-73
2023/05/25 10:11:25;;;;;;;7.00;4.63;;;;;;;23.88;39.90;99632.44;5145281;27;20045;-72
2023/05/25 10:13:53;;;;;;;7.80;4.60;;;;;;;23.89;40.19;99628.72;5146139;27;20111;-73
2023/05/25 10:16:25;;;;;;;6.70;4.35;;;;;;;23.47;39.72;99565.63;5146158;28;20041;-73
2023/05/25 10:18:55;;;;;;;8.63;5.70;;;;;;;23.84;39.05;99632.94;5145351;28;20299;-73
2023/05/25 10:21:27;;;;;;;9.45;4.43;;;;;;;23.83;38.79;99618.56;5146782;28;20172;-74
2023/05/25 10:24:03;;;;;;;4.97;3.63;;;;;;;23.66;39.14;99590.59;5146990;27;20136;-74
2023/05/25 10:26:35;;;;;;;7.13;4.03;;;;;;;23.44;39.34;99547.03;5146315;28;20039;-74
2023/05/25 10:29:04;;;;;;;5.30;3.70;;;;;;;23.69;39.74;99590.25;5146610;27;20054;-73
2023/05/25 10:31:32;;;;;;;21.80;4.93;;;;;;;23.87;39.91;99628.03;5145353;28;20236;-74
2023/05/25 10:34:00;;;;;;;7.80;4.55;;;;;;;23.72;39.65;99591.78;5146634;27;20106;-74
2023/05/25 10:36:29;;;;;;;9.05;5.53;;;;;;;23.88;39.15;99627.03;5146628;28;20058;-74
2023/05/25 10:38:57;;;;;;;10.30;5.78;;;;;;;23.55;39.74;99606.25;5145241;28;20194;-74
2023/05/25 10:41:25;;;;;;;8.00;4.10;;;;;;;23.59;40.05;99623.84;5146398;28;20050;-74
2023/05/25 10:43:53;;;;;;;18.92;5.80;;;;;;;23.73;40.05;99614.28;5145347;28;20043;-74
2023/05/25 10:46:21;;;;;;;9.32;5.10;;;;;;;23.63;39.96;99581.94;5146728;28;20275;-74
2023/05/25 10:48:51;;;;;;;24.08;6.32;;;;;;;23.45;39.87;99546.03;5146436;27;20190;-73
2023/05/25 10:51:20;;;;;;;8.50;4.22;;;;;;;23.98;39.79;99600.72;5149400;27;20317;-73
2023/05/25 10:53:59;;;;;;;13.10;4.50;;;;;;;23.76;39.08;99566.09;5149339;27;20043;-74
2023/05/25 10:56:26;;;;;;;7.18;4.65;;;;;;;23.99;39.90;99615.94;5149301;27;20330;-74
2023/05/25 10:58:53;;;;;;;9.68;4.20;;;;;;;24.00;39.89;99612.22;5150569;27;20042;-74
2023/05/25 11:01:19;;;;;;;9.10;4.38;;;;;;;24.00;39.56;99598.69;5150113;27;20049;-73
2023/05/25 11:03:57;;;;;;;7.53;5.80;;;;;;;23.95;38.39;99590.19;5149018;27;20127;-73
2023/05/25 11:07:04;;;;;;;8.07;5.15;;;;;;;23.80;38.38;99594.53;5149908;27;20039;-74
2023/05/25 11:09:34;;;;;;;12.30;5.20;;;;;;;23.69;39.94;99589.41;5149906;27;20058;-74
2023/05/25 11:12:03;;;;;;;9.88;4.05;;;;;;;23.72;40.22;99594.50;5148911;27;20303;-74
2023/05/25 11:14:31;;;;;;;8.27;4.88;;;;;;;23.56;39.85;99554.69;5150027;27;20039;-74
2023/05/25 11:17:06;;;;;;;5.63;3.70;;;;;;;23.80;39.31;99590.97;5149546;27;20035;-73
2023/05/25 11:19:42;;;;;;;11.90;6.57;;;;;;;23.83;38.89;99580.66;5149385;27;20180;-73
2023/05/25 11:22:19;;;;;;;6.50;4.03;;;;;;;23.47;38.83;99536.75;5149626;27;20096;-74
2023/05/25 11:24:48;;;;;;;7.03;4.25;;;;;;;23.82;39.85;99584.38;5148563;27;20126;-74
2023/05/25 11:27:15;;;;;;;8.43;4.20;;;;;;;23.46;39.56;99510.69;5149196;27;20039;-74
2023/05/25 11:29:42;;;;;;;6.68;3.90;;;;;;;23.86;39.53;99561.41;5148638;27;20035;-74
2023/05/25 11:32:14;;;;;;;8.65;4.35;;;;;;;23.68;39.49;99530.91;5149166;27;20046;-74
2023/05/25 11:34:45;;;;;;;8.88;4.88;;;;;;;23.41;39.52;99490.56;5149451;27;20049;-72